<?xml version="1.0" encoding="UTF-8" standalone="no" ?>
<gpx xmlns="http://www.topografix.com/GPX/1/1" xmlns:xsi="http://www.w3.org/2001/XMLSchema-instance" xsi:schemaLocation="http://www.topografix.com/GPX/1/1 http://www.topografix.com/GPX/1/1/gpx.xsd" version="1.1" creator="VisuGPX - https://www.visugpx.com">
  <metadata>
    <name>Course à pied dans l'après-midi</name>
  </metadata>
  <trk>
    <name><![CDATA[Course à pied dans l'après-midi_1]]></name>
    <trkseg>
      <trkpt lat="46.83436" lon="6.40024">
        <ele>1087.3</ele>
        <time>2024-01-13T16:33:41Z</time>
      </trkpt>
      <trkpt lat="46.83437" lon="6.39997">
        <ele>1088.1</ele>
        <time>2024-01-13T16:33:47Z</time>
      </trkpt>
      <trkpt lat="46.83435" lon="6.39968">
        <ele>1088.7</ele>
        <time>2024-01-13T16:33:54Z</time>
      </trkpt>
      <trkpt lat="46.83431" lon="6.39942">
        <ele>1089.1</ele>
        <time>2024-01-13T16:34:01Z</time>
      </trkpt>
      <trkpt lat="46.83426" lon="6.39916">
        <ele>1089.6</ele>
        <time>2024-01-13T16:34:08Z</time>
      </trkpt>
      <trkpt lat="46.83419" lon="6.3989">
        <ele>1090.2</ele>
        <time>2024-01-13T16:34:15Z</time>
      </trkpt>
      <trkpt lat="46.83413" lon="6.39865">
        <ele>1090.7</ele>
        <time>2024-01-13T16:34:22Z</time>
      </trkpt>
      <trkpt lat="46.83404" lon="6.3984">
        <ele>1091.1</ele>
        <time>2024-01-13T16:34:29Z</time>
      </trkpt>
      <trkpt lat="46.83401" lon="6.39814">
        <ele>1090.8</ele>
        <time>2024-01-13T16:34:35Z</time>
      </trkpt>
      <trkpt lat="46.83401" lon="6.39784">
        <ele>1090.2</ele>
        <time>2024-01-13T16:34:42Z</time>
      </trkpt>
      <trkpt lat="46.83402" lon="6.39756">
        <ele>1089.7</ele>
        <time>2024-01-13T16:34:49Z</time>
      </trkpt>
      <trkpt lat="46.83403" lon="6.39729">
        <ele>1089.2</ele>
        <time>2024-01-13T16:34:55Z</time>
      </trkpt>
      <trkpt lat="46.83404" lon="6.39702">
        <ele>1088.8</ele>
        <time>2024-01-13T16:35:01Z</time>
      </trkpt>
      <trkpt lat="46.83403" lon="6.39674">
        <ele>1088.4</ele>
        <time>2024-01-13T16:35:08Z</time>
      </trkpt>
      <trkpt lat="46.83403" lon="6.39644">
        <ele>1088</ele>
        <time>2024-01-13T16:35:15Z</time>
      </trkpt>
      <trkpt lat="46.83407" lon="6.39617">
        <ele>1087.8</ele>
        <time>2024-01-13T16:35:21Z</time>
      </trkpt>
      <trkpt lat="46.83412" lon="6.3959">
        <ele>1087.5</ele>
        <time>2024-01-13T16:35:27Z</time>
      </trkpt>
      <trkpt lat="46.83413" lon="6.39564">
        <ele>1087.3</ele>
        <time>2024-01-13T16:35:33Z</time>
      </trkpt>
      <trkpt lat="46.83411" lon="6.39534">
        <ele>1087</ele>
        <time>2024-01-13T16:35:40Z</time>
      </trkpt>
      <trkpt lat="46.83411" lon="6.39506">
        <ele>1086.7</ele>
        <time>2024-01-13T16:35:46Z</time>
      </trkpt>
      <trkpt lat="46.83413" lon="6.39476">
        <ele>1086.5</ele>
        <time>2024-01-13T16:35:53Z</time>
      </trkpt>
      <trkpt lat="46.83419" lon="6.39449">
        <ele>1086.7</ele>
        <time>2024-01-13T16:36:00Z</time>
      </trkpt>
      <trkpt lat="46.83425" lon="6.39421">
        <ele>1086.8</ele>
        <time>2024-01-13T16:36:07Z</time>
      </trkpt>
      <trkpt lat="46.83427" lon="6.39397">
        <ele>1087</ele>
        <time>2024-01-13T16:36:13Z</time>
      </trkpt>
      <trkpt lat="46.83427" lon="6.39368">
        <ele>1087.1</ele>
        <time>2024-01-13T16:36:20Z</time>
      </trkpt>
      <trkpt lat="46.83424" lon="6.39339">
        <ele>1087.3</ele>
        <time>2024-01-13T16:36:27Z</time>
      </trkpt>
      <trkpt lat="46.83422" lon="6.39311">
        <ele>1087.7</ele>
        <time>2024-01-13T16:36:34Z</time>
      </trkpt>
      <trkpt lat="46.83421" lon="6.39282">
        <ele>1088.5</ele>
        <time>2024-01-13T16:36:42Z</time>
      </trkpt>
      <trkpt lat="46.83421" lon="6.39254">
        <ele>1089.3</ele>
        <time>2024-01-13T16:36:50Z</time>
      </trkpt>
      <trkpt lat="46.83425" lon="6.39225">
        <ele>1089.9</ele>
        <time>2024-01-13T16:36:57Z</time>
      </trkpt>
      <trkpt lat="46.83428" lon="6.39196">
        <ele>1090.2</ele>
        <time>2024-01-13T16:37:04Z</time>
      </trkpt>
      <trkpt lat="46.83432" lon="6.39167">
        <ele>1090.4</ele>
        <time>2024-01-13T16:37:11Z</time>
      </trkpt>
      <trkpt lat="46.83435" lon="6.3914">
        <ele>1090.4</ele>
        <time>2024-01-13T16:37:18Z</time>
      </trkpt>
      <trkpt lat="46.83438" lon="6.39113">
        <ele>1090.2</ele>
        <time>2024-01-13T16:37:25Z</time>
      </trkpt>
      <trkpt lat="46.83444" lon="6.39086">
        <ele>1090.1</ele>
        <time>2024-01-13T16:37:32Z</time>
      </trkpt>
      <trkpt lat="46.83447" lon="6.39057">
        <ele>1089.9</ele>
        <time>2024-01-13T16:37:39Z</time>
      </trkpt>
      <trkpt lat="46.83444" lon="6.39029">
        <ele>1089.5</ele>
        <time>2024-01-13T16:37:46Z</time>
      </trkpt>
      <trkpt lat="46.83435" lon="6.39004">
        <ele>1089</ele>
        <time>2024-01-13T16:37:53Z</time>
      </trkpt>
      <trkpt lat="46.83429" lon="6.38978">
        <ele>1088.4</ele>
        <time>2024-01-13T16:38:00Z</time>
      </trkpt>
      <trkpt lat="46.83422" lon="6.38951">
        <ele>1087.8</ele>
        <time>2024-01-13T16:38:07Z</time>
      </trkpt>
      <trkpt lat="46.83417" lon="6.38922">
        <ele>1087.3</ele>
        <time>2024-01-13T16:38:14Z</time>
      </trkpt>
      <trkpt lat="46.83411" lon="6.38895">
        <ele>1086.7</ele>
        <time>2024-01-13T16:38:20Z</time>
      </trkpt>
      <trkpt lat="46.83406" lon="6.3887">
        <ele>1086</ele>
        <time>2024-01-13T16:38:26Z</time>
      </trkpt>
      <trkpt lat="46.83399" lon="6.38843">
        <ele>1085.9</ele>
        <time>2024-01-13T16:38:32Z</time>
      </trkpt>
      <trkpt lat="46.83393" lon="6.38817">
        <ele>1086.6</ele>
        <time>2024-01-13T16:38:39Z</time>
      </trkpt>
      <trkpt lat="46.83386" lon="6.38789">
        <ele>1087.2</ele>
        <time>2024-01-13T16:38:47Z</time>
      </trkpt>
      <trkpt lat="46.83381" lon="6.38762">
        <ele>1087.4</ele>
        <time>2024-01-13T16:38:54Z</time>
      </trkpt>
      <trkpt lat="46.83375" lon="6.38736">
        <ele>1087.4</ele>
        <time>2024-01-13T16:39:01Z</time>
      </trkpt>
      <trkpt lat="46.83373" lon="6.38709">
        <ele>1087.1</ele>
        <time>2024-01-13T16:39:08Z</time>
      </trkpt>
      <trkpt lat="46.83371" lon="6.38683">
        <ele>1086.8</ele>
        <time>2024-01-13T16:39:14Z</time>
      </trkpt>
      <trkpt lat="46.83367" lon="6.38657">
        <ele>1086.7</ele>
        <time>2024-01-13T16:39:20Z</time>
      </trkpt>
      <trkpt lat="46.83366" lon="6.3863">
        <ele>1086.3</ele>
        <time>2024-01-13T16:39:26Z</time>
      </trkpt>
      <trkpt lat="46.83364" lon="6.386">
        <ele>1085.8</ele>
        <time>2024-01-13T16:39:33Z</time>
      </trkpt>
      <trkpt lat="46.8336" lon="6.38569">
        <ele>1085.8</ele>
        <time>2024-01-13T16:39:39Z</time>
      </trkpt>
      <trkpt lat="46.83358" lon="6.38542">
        <ele>1086.1</ele>
        <time>2024-01-13T16:39:45Z</time>
      </trkpt>
      <trkpt lat="46.83355" lon="6.38512">
        <ele>1086.1</ele>
        <time>2024-01-13T16:39:51Z</time>
      </trkpt>
      <trkpt lat="46.83352" lon="6.38483">
        <ele>1085.6</ele>
        <time>2024-01-13T16:39:57Z</time>
      </trkpt>
      <trkpt lat="46.83348" lon="6.38456">
        <ele>1085.1</ele>
        <time>2024-01-13T16:40:03Z</time>
      </trkpt>
      <trkpt lat="46.83343" lon="6.38428">
        <ele>1084.3</ele>
        <time>2024-01-13T16:40:09Z</time>
      </trkpt>
      <trkpt lat="46.83339" lon="6.384">
        <ele>1083.3</ele>
        <time>2024-01-13T16:40:15Z</time>
      </trkpt>
      <trkpt lat="46.83334" lon="6.38372">
        <ele>1082.5</ele>
        <time>2024-01-13T16:40:21Z</time>
      </trkpt>
      <trkpt lat="46.83326" lon="6.3835">
        <ele>1082.2</ele>
        <time>2024-01-13T16:40:27Z</time>
      </trkpt>
      <trkpt lat="46.83314" lon="6.38328">
        <ele>1081.7</ele>
        <time>2024-01-13T16:40:33Z</time>
      </trkpt>
      <trkpt lat="46.83302" lon="6.38306">
        <ele>1081</ele>
        <time>2024-01-13T16:40:38Z</time>
      </trkpt>
      <trkpt lat="46.83289" lon="6.38283">
        <ele>1079.7</ele>
        <time>2024-01-13T16:40:44Z</time>
      </trkpt>
      <trkpt lat="46.83276" lon="6.38262">
        <ele>1078.2</ele>
        <time>2024-01-13T16:40:49Z</time>
      </trkpt>
      <trkpt lat="46.83262" lon="6.38239">
        <ele>1076.6</ele>
        <time>2024-01-13T16:40:55Z</time>
      </trkpt>
      <trkpt lat="46.83247" lon="6.38219">
        <ele>1075.3</ele>
        <time>2024-01-13T16:41:00Z</time>
      </trkpt>
      <trkpt lat="46.83234" lon="6.382">
        <ele>1074.6</ele>
        <time>2024-01-13T16:41:05Z</time>
      </trkpt>
      <trkpt lat="46.83221" lon="6.38179">
        <ele>1074</ele>
        <time>2024-01-13T16:41:10Z</time>
      </trkpt>
      <trkpt lat="46.8321" lon="6.38159">
        <ele>1073.7</ele>
        <time>2024-01-13T16:41:15Z</time>
      </trkpt>
      <trkpt lat="46.83199" lon="6.38133">
        <ele>1073.9</ele>
        <time>2024-01-13T16:41:21Z</time>
      </trkpt>
      <trkpt lat="46.8319" lon="6.38106">
        <ele>1074.5</ele>
        <time>2024-01-13T16:41:28Z</time>
      </trkpt>
      <trkpt lat="46.83181" lon="6.38082">
        <ele>1074.8</ele>
        <time>2024-01-13T16:41:34Z</time>
      </trkpt>
      <trkpt lat="46.83173" lon="6.38057">
        <ele>1074.7</ele>
        <time>2024-01-13T16:41:40Z</time>
      </trkpt>
      <trkpt lat="46.83162" lon="6.38031">
        <ele>1074.9</ele>
        <time>2024-01-13T16:41:47Z</time>
      </trkpt>
      <trkpt lat="46.83151" lon="6.38006">
        <ele>1074.9</ele>
        <time>2024-01-13T16:41:54Z</time>
      </trkpt>
      <trkpt lat="46.83142" lon="6.37982">
        <ele>1075.7</ele>
        <time>2024-01-13T16:42:00Z</time>
      </trkpt>
      <trkpt lat="46.83126" lon="6.37967">
        <ele>1076.3</ele>
        <time>2024-01-13T16:42:07Z</time>
      </trkpt>
      <trkpt lat="46.83108" lon="6.37953">
        <ele>1076.1</ele>
        <time>2024-01-13T16:42:13Z</time>
      </trkpt>
      <trkpt lat="46.83092" lon="6.37936">
        <ele>1076</ele>
        <time>2024-01-13T16:42:19Z</time>
      </trkpt>
      <trkpt lat="46.83075" lon="6.37924">
        <ele>1075.9</ele>
        <time>2024-01-13T16:42:25Z</time>
      </trkpt>
      <trkpt lat="46.83058" lon="6.37911">
        <ele>1075.1</ele>
        <time>2024-01-13T16:42:31Z</time>
      </trkpt>
      <trkpt lat="46.83049" lon="6.37897">
        <ele>1073.5</ele>
        <time>2024-01-13T16:42:36Z</time>
      </trkpt>
      <trkpt lat="46.83053" lon="6.37893">
        <ele>1073</ele>
        <time>2024-01-13T16:42:38Z</time>
      </trkpt>
      <trkpt lat="46.83074" lon="6.37884">
        <ele>1073.1</ele>
        <time>2024-01-13T16:42:44Z</time>
      </trkpt>
      <trkpt lat="46.83093" lon="6.37874">
        <ele>1072.8</ele>
        <time>2024-01-13T16:42:50Z</time>
      </trkpt>
      <trkpt lat="46.83113" lon="6.37866">
        <ele>1068.4</ele>
        <time>2024-01-13T16:42:56Z</time>
      </trkpt>
      <trkpt lat="46.83131" lon="6.37858">
        <ele>1065.1</ele>
        <time>2024-01-13T16:43:02Z</time>
      </trkpt>
      <trkpt lat="46.83149" lon="6.37851">
        <ele>1065.4</ele>
        <time>2024-01-13T16:43:08Z</time>
      </trkpt>
      <trkpt lat="46.83168" lon="6.37842">
        <ele>1068.1</ele>
        <time>2024-01-13T16:43:15Z</time>
      </trkpt>
      <trkpt lat="46.83173" lon="6.37834">
        <ele>1068.8</ele>
        <time>2024-01-13T16:43:18Z</time>
      </trkpt>
      <trkpt lat="46.83165" lon="6.37806">
        <ele>1068.3</ele>
        <time>2024-01-13T16:43:25Z</time>
      </trkpt>
      <trkpt lat="46.83153" lon="6.37782">
        <ele>1067.9</ele>
        <time>2024-01-13T16:43:31Z</time>
      </trkpt>
      <trkpt lat="46.83141" lon="6.3776">
        <ele>1067.6</ele>
        <time>2024-01-13T16:43:37Z</time>
      </trkpt>
      <trkpt lat="46.8313" lon="6.37738">
        <ele>1067.1</ele>
        <time>2024-01-13T16:43:43Z</time>
      </trkpt>
      <trkpt lat="46.83119" lon="6.37716">
        <ele>1066.6</ele>
        <time>2024-01-13T16:43:49Z</time>
      </trkpt>
      <trkpt lat="46.83109" lon="6.37692">
        <ele>1066.1</ele>
        <time>2024-01-13T16:43:55Z</time>
      </trkpt>
      <trkpt lat="46.831" lon="6.37668">
        <ele>1065.8</ele>
        <time>2024-01-13T16:44:01Z</time>
      </trkpt>
      <trkpt lat="46.83088" lon="6.37644">
        <ele>1065.5</ele>
        <time>2024-01-13T16:44:08Z</time>
      </trkpt>
      <trkpt lat="46.83082" lon="6.37619">
        <ele>1065.2</ele>
        <time>2024-01-13T16:44:15Z</time>
      </trkpt>
      <trkpt lat="46.83093" lon="6.37597">
        <ele>1064.8</ele>
        <time>2024-01-13T16:44:21Z</time>
      </trkpt>
      <trkpt lat="46.83107" lon="6.37574">
        <ele>1064.5</ele>
        <time>2024-01-13T16:44:28Z</time>
      </trkpt>
      <trkpt lat="46.83121" lon="6.37554">
        <ele>1064.4</ele>
        <time>2024-01-13T16:44:35Z</time>
      </trkpt>
      <trkpt lat="46.83137" lon="6.37539">
        <ele>1064.4</ele>
        <time>2024-01-13T16:44:42Z</time>
      </trkpt>
      <trkpt lat="46.83154" lon="6.37526">
        <ele>1064.3</ele>
        <time>2024-01-13T16:44:49Z</time>
      </trkpt>
      <trkpt lat="46.83171" lon="6.37515">
        <ele>1063.1</ele>
        <time>2024-01-13T16:44:55Z</time>
      </trkpt>
      <trkpt lat="46.83191" lon="6.37507">
        <ele>1061.9</ele>
        <time>2024-01-13T16:45:02Z</time>
      </trkpt>
      <trkpt lat="46.83211" lon="6.37502">
        <ele>1060.8</ele>
        <time>2024-01-13T16:45:09Z</time>
      </trkpt>
      <trkpt lat="46.8323" lon="6.37497">
        <ele>1059.4</ele>
        <time>2024-01-13T16:45:16Z</time>
      </trkpt>
      <trkpt lat="46.83247" lon="6.37484">
        <ele>1057.6</ele>
        <time>2024-01-13T16:45:22Z</time>
      </trkpt>
      <trkpt lat="46.8326" lon="6.37463">
        <ele>1055.6</ele>
        <time>2024-01-13T16:45:28Z</time>
      </trkpt>
      <trkpt lat="46.83271" lon="6.37443">
        <ele>1053.2</ele>
        <time>2024-01-13T16:45:33Z</time>
      </trkpt>
      <trkpt lat="46.83288" lon="6.37426">
        <ele>1050.5</ele>
        <time>2024-01-13T16:45:39Z</time>
      </trkpt>
      <trkpt lat="46.83302" lon="6.37406">
        <ele>1047.8</ele>
        <time>2024-01-13T16:45:46Z</time>
      </trkpt>
      <trkpt lat="46.83313" lon="6.37385">
        <ele>1045.4</ele>
        <time>2024-01-13T16:45:52Z</time>
      </trkpt>
      <trkpt lat="46.83323" lon="6.37362">
        <ele>1043.1</ele>
        <time>2024-01-13T16:45:58Z</time>
      </trkpt>
      <trkpt lat="46.83337" lon="6.37343">
        <ele>1040.6</ele>
        <time>2024-01-13T16:46:03Z</time>
      </trkpt>
      <trkpt lat="46.83355" lon="6.37333">
        <ele>1038.1</ele>
        <time>2024-01-13T16:46:09Z</time>
      </trkpt>
      <trkpt lat="46.83375" lon="6.37326">
        <ele>1035.9</ele>
        <time>2024-01-13T16:46:16Z</time>
      </trkpt>
      <trkpt lat="46.83394" lon="6.3733">
        <ele>1034.5</ele>
        <time>2024-01-13T16:46:23Z</time>
      </trkpt>
      <trkpt lat="46.83414" lon="6.37324">
        <ele>1033.4</ele>
        <time>2024-01-13T16:46:31Z</time>
      </trkpt>
      <trkpt lat="46.83432" lon="6.37319">
        <ele>1031.9</ele>
        <time>2024-01-13T16:46:37Z</time>
      </trkpt>
      <trkpt lat="46.8345" lon="6.37316">
        <ele>1030.4</ele>
        <time>2024-01-13T16:46:43Z</time>
      </trkpt>
      <trkpt lat="46.8347" lon="6.37314">
        <ele>1028.5</ele>
        <time>2024-01-13T16:46:50Z</time>
      </trkpt>
      <trkpt lat="46.83488" lon="6.37314">
        <ele>1026.9</ele>
        <time>2024-01-13T16:46:57Z</time>
      </trkpt>
      <trkpt lat="46.83507" lon="6.37309">
        <ele>1025.6</ele>
        <time>2024-01-13T16:47:04Z</time>
      </trkpt>
      <trkpt lat="46.83526" lon="6.37307">
        <ele>1024.8</ele>
        <time>2024-01-13T16:47:12Z</time>
      </trkpt>
      <trkpt lat="46.83545" lon="6.37302">
        <ele>1024</ele>
        <time>2024-01-13T16:47:19Z</time>
      </trkpt>
      <trkpt lat="46.83565" lon="6.37298">
        <ele>1022.6</ele>
        <time>2024-01-13T16:47:26Z</time>
      </trkpt>
      <trkpt lat="46.83578" lon="6.37285">
        <ele>1021.2</ele>
        <time>2024-01-13T16:47:33Z</time>
      </trkpt>
      <trkpt lat="46.83564" lon="6.37264">
        <ele>1018.4</ele>
        <time>2024-01-13T16:47:40Z</time>
      </trkpt>
      <trkpt lat="46.83547" lon="6.37248">
        <ele>1017.2</ele>
        <time>2024-01-13T16:47:46Z</time>
      </trkpt>
      <trkpt lat="46.83531" lon="6.37232">
        <ele>1016.1</ele>
        <time>2024-01-13T16:47:52Z</time>
      </trkpt>
      <trkpt lat="46.83515" lon="6.37217">
        <ele>1014.8</ele>
        <time>2024-01-13T16:47:57Z</time>
      </trkpt>
      <trkpt lat="46.83499" lon="6.37204">
        <ele>1014</ele>
        <time>2024-01-13T16:48:02Z</time>
      </trkpt>
      <trkpt lat="46.83481" lon="6.37191">
        <ele>1013.4</ele>
        <time>2024-01-13T16:48:08Z</time>
      </trkpt>
      <trkpt lat="46.83464" lon="6.37181">
        <ele>1013</ele>
        <time>2024-01-13T16:48:14Z</time>
      </trkpt>
      <trkpt lat="46.83446" lon="6.37168">
        <ele>1012.6</ele>
        <time>2024-01-13T16:48:20Z</time>
      </trkpt>
      <trkpt lat="46.83431" lon="6.3715">
        <ele>1012.5</ele>
        <time>2024-01-13T16:48:26Z</time>
      </trkpt>
      <trkpt lat="46.83416" lon="6.37128">
        <ele>1012</ele>
        <time>2024-01-13T16:48:32Z</time>
      </trkpt>
      <trkpt lat="46.83402" lon="6.37111">
        <ele>1011.3</ele>
        <time>2024-01-13T16:48:37Z</time>
      </trkpt>
      <trkpt lat="46.83386" lon="6.37091">
        <ele>1010.7</ele>
        <time>2024-01-13T16:48:43Z</time>
      </trkpt>
      <trkpt lat="46.83367" lon="6.37077">
        <ele>1010.2</ele>
        <time>2024-01-13T16:48:49Z</time>
      </trkpt>
      <trkpt lat="46.83352" lon="6.37058">
        <ele>1009.7</ele>
        <time>2024-01-13T16:48:55Z</time>
      </trkpt>
      <trkpt lat="46.8334" lon="6.37036">
        <ele>1010.4</ele>
        <time>2024-01-13T16:49:01Z</time>
      </trkpt>
      <trkpt lat="46.83322" lon="6.3703">
        <ele>1011.6</ele>
        <time>2024-01-13T16:49:09Z</time>
      </trkpt>
      <trkpt lat="46.83304" lon="6.37021">
        <ele>1012.7</ele>
        <time>2024-01-13T16:49:16Z</time>
      </trkpt>
      <trkpt lat="46.83286" lon="6.3701">
        <ele>1013.9</ele>
        <time>2024-01-13T16:49:22Z</time>
      </trkpt>
      <trkpt lat="46.83268" lon="6.37">
        <ele>1015.1</ele>
        <time>2024-01-13T16:49:29Z</time>
      </trkpt>
      <trkpt lat="46.8325" lon="6.36998">
        <ele>1016.2</ele>
        <time>2024-01-13T16:49:36Z</time>
      </trkpt>
      <trkpt lat="46.83231" lon="6.36995">
        <ele>1017.4</ele>
        <time>2024-01-13T16:49:43Z</time>
      </trkpt>
      <trkpt lat="46.83211" lon="6.36988">
        <ele>1018.7</ele>
        <time>2024-01-13T16:49:50Z</time>
      </trkpt>
      <trkpt lat="46.83191" lon="6.36987">
        <ele>1020</ele>
        <time>2024-01-13T16:49:58Z</time>
      </trkpt>
      <trkpt lat="46.83172" lon="6.36988">
        <ele>1021.2</ele>
        <time>2024-01-13T16:50:05Z</time>
      </trkpt>
      <trkpt lat="46.83153" lon="6.36992">
        <ele>1022.5</ele>
        <time>2024-01-13T16:50:12Z</time>
      </trkpt>
      <trkpt lat="46.83134" lon="6.36998">
        <ele>1023.7</ele>
        <time>2024-01-13T16:50:19Z</time>
      </trkpt>
      <trkpt lat="46.83116" lon="6.36998">
        <ele>1024.9</ele>
        <time>2024-01-13T16:50:26Z</time>
      </trkpt>
      <trkpt lat="46.83096" lon="6.36997">
        <ele>1026.2</ele>
        <time>2024-01-13T16:50:34Z</time>
      </trkpt>
      <trkpt lat="46.83077" lon="6.37">
        <ele>1027.4</ele>
        <time>2024-01-13T16:50:41Z</time>
      </trkpt>
      <trkpt lat="46.83057" lon="6.37001">
        <ele>1028.6</ele>
        <time>2024-01-13T16:50:48Z</time>
      </trkpt>
      <trkpt lat="46.83038" lon="6.37004">
        <ele>1029.8</ele>
        <time>2024-01-13T16:50:55Z</time>
      </trkpt>
      <trkpt lat="46.83019" lon="6.37009">
        <ele>1031</ele>
        <time>2024-01-13T16:51:02Z</time>
      </trkpt>
      <trkpt lat="46.83001" lon="6.37022">
        <ele>1031.9</ele>
        <time>2024-01-13T16:51:09Z</time>
      </trkpt>
      <trkpt lat="46.82986" lon="6.3704">
        <ele>1032.7</ele>
        <time>2024-01-13T16:51:16Z</time>
      </trkpt>
      <trkpt lat="46.82971" lon="6.37057">
        <ele>1033.5</ele>
        <time>2024-01-13T16:51:23Z</time>
      </trkpt>
      <trkpt lat="46.82956" lon="6.37078">
        <ele>1034.3</ele>
        <time>2024-01-13T16:51:31Z</time>
      </trkpt>
      <trkpt lat="46.82944" lon="6.37099">
        <ele>1034.9</ele>
        <time>2024-01-13T16:51:38Z</time>
      </trkpt>
      <trkpt lat="46.82928" lon="6.37116">
        <ele>1035.3</ele>
        <time>2024-01-13T16:51:46Z</time>
      </trkpt>
      <trkpt lat="46.8291" lon="6.37125">
        <ele>1035.8</ele>
        <time>2024-01-13T16:51:52Z</time>
      </trkpt>
      <trkpt lat="46.82891" lon="6.37131">
        <ele>1036.3</ele>
        <time>2024-01-13T16:51:58Z</time>
      </trkpt>
      <trkpt lat="46.82874" lon="6.37139">
        <ele>1036.7</ele>
        <time>2024-01-13T16:52:04Z</time>
      </trkpt>
      <trkpt lat="46.82855" lon="6.37151">
        <ele>1037.1</ele>
        <time>2024-01-13T16:52:11Z</time>
      </trkpt>
      <trkpt lat="46.82835" lon="6.37163">
        <ele>1037.9</ele>
        <time>2024-01-13T16:52:19Z</time>
      </trkpt>
      <trkpt lat="46.82818" lon="6.37174">
        <ele>1038.7</ele>
        <time>2024-01-13T16:52:25Z</time>
      </trkpt>
      <trkpt lat="46.82801" lon="6.37183">
        <ele>1039.7</ele>
        <time>2024-01-13T16:52:32Z</time>
      </trkpt>
      <trkpt lat="46.82784" lon="6.37194">
        <ele>1040.7</ele>
        <time>2024-01-13T16:52:38Z</time>
      </trkpt>
      <trkpt lat="46.82766" lon="6.37204">
        <ele>1041.6</ele>
        <time>2024-01-13T16:52:44Z</time>
      </trkpt>
      <trkpt lat="46.82748" lon="6.37216">
        <ele>1042.6</ele>
        <time>2024-01-13T16:52:51Z</time>
      </trkpt>
      <trkpt lat="46.82731" lon="6.37226">
        <ele>1043.3</ele>
        <time>2024-01-13T16:52:58Z</time>
      </trkpt>
      <trkpt lat="46.82712" lon="6.37238">
        <ele>1044.1</ele>
        <time>2024-01-13T16:53:05Z</time>
      </trkpt>
      <trkpt lat="46.82695" lon="6.37247">
        <ele>1044.6</ele>
        <time>2024-01-13T16:53:11Z</time>
      </trkpt>
      <trkpt lat="46.82679" lon="6.37261">
        <ele>1045.5</ele>
        <time>2024-01-13T16:53:17Z</time>
      </trkpt>
      <trkpt lat="46.82663" lon="6.37274">
        <ele>1046.7</ele>
        <time>2024-01-13T16:53:24Z</time>
      </trkpt>
      <trkpt lat="46.82646" lon="6.37284">
        <ele>1047.8</ele>
        <time>2024-01-13T16:53:30Z</time>
      </trkpt>
      <trkpt lat="46.82625" lon="6.37285">
        <ele>1049.3</ele>
        <time>2024-01-13T16:53:37Z</time>
      </trkpt>
      <trkpt lat="46.82606" lon="6.37287">
        <ele>1050.9</ele>
        <time>2024-01-13T16:53:44Z</time>
      </trkpt>
      <trkpt lat="46.82586" lon="6.37288">
        <ele>1052.3</ele>
        <time>2024-01-13T16:53:52Z</time>
      </trkpt>
      <trkpt lat="46.82568" lon="6.37286">
        <ele>1053.4</ele>
        <time>2024-01-13T16:53:58Z</time>
      </trkpt>
      <trkpt lat="46.82549" lon="6.37287">
        <ele>1054.4</ele>
        <time>2024-01-13T16:54:04Z</time>
      </trkpt>
      <trkpt lat="46.8253" lon="6.3729">
        <ele>1055.3</ele>
        <time>2024-01-13T16:54:11Z</time>
      </trkpt>
      <trkpt lat="46.82511" lon="6.37296">
        <ele>1056.2</ele>
        <time>2024-01-13T16:54:18Z</time>
      </trkpt>
      <trkpt lat="46.82494" lon="6.37309">
        <ele>1057.1</ele>
        <time>2024-01-13T16:54:26Z</time>
      </trkpt>
      <trkpt lat="46.82477" lon="6.37325">
        <ele>1057.7</ele>
        <time>2024-01-13T16:54:31Z</time>
      </trkpt>
      <trkpt lat="46.8246" lon="6.37338">
        <ele>1057.8</ele>
        <time>2024-01-13T16:54:36Z</time>
      </trkpt>
      <trkpt lat="46.82443" lon="6.37351">
        <ele>1058.1</ele>
        <time>2024-01-13T16:54:41Z</time>
      </trkpt>
      <trkpt lat="46.82427" lon="6.37366">
        <ele>1057.4</ele>
        <time>2024-01-13T16:54:47Z</time>
      </trkpt>
      <trkpt lat="46.8241" lon="6.37378">
        <ele>1057</ele>
        <time>2024-01-13T16:54:54Z</time>
      </trkpt>
      <trkpt lat="46.82394" lon="6.3739">
        <ele>1057.4</ele>
        <time>2024-01-13T16:55:01Z</time>
      </trkpt>
      <trkpt lat="46.82375" lon="6.37398">
        <ele>1058.6</ele>
        <time>2024-01-13T16:55:10Z</time>
      </trkpt>
      <trkpt lat="46.82357" lon="6.37406">
        <ele>1059.9</ele>
        <time>2024-01-13T16:55:19Z</time>
      </trkpt>
      <trkpt lat="46.82339" lon="6.37414">
        <ele>1061.4</ele>
        <time>2024-01-13T16:55:28Z</time>
      </trkpt>
      <trkpt lat="46.8232" lon="6.37414">
        <ele>1062.3</ele>
        <time>2024-01-13T16:55:37Z</time>
      </trkpt>
      <trkpt lat="46.823" lon="6.37415">
        <ele>1062.1</ele>
        <time>2024-01-13T16:55:45Z</time>
      </trkpt>
      <trkpt lat="46.8228" lon="6.37419">
        <ele>1061.7</ele>
        <time>2024-01-13T16:55:53Z</time>
      </trkpt>
      <trkpt lat="46.82262" lon="6.37428">
        <ele>1062</ele>
        <time>2024-01-13T16:56:01Z</time>
      </trkpt>
      <trkpt lat="46.82244" lon="6.37433">
        <ele>1062.7</ele>
        <time>2024-01-13T16:56:11Z</time>
      </trkpt>
      <trkpt lat="46.82224" lon="6.37435">
        <ele>1062.7</ele>
        <time>2024-01-13T16:56:19Z</time>
      </trkpt>
      <trkpt lat="46.82205" lon="6.37434">
        <ele>1062.2</ele>
        <time>2024-01-13T16:56:26Z</time>
      </trkpt>
      <trkpt lat="46.82187" lon="6.37437">
        <ele>1062.1</ele>
        <time>2024-01-13T16:56:33Z</time>
      </trkpt>
      <trkpt lat="46.82169" lon="6.37444">
        <ele>1062.9</ele>
        <time>2024-01-13T16:56:42Z</time>
      </trkpt>
      <trkpt lat="46.82151" lon="6.37452">
        <ele>1064.7</ele>
        <time>2024-01-13T16:56:51Z</time>
      </trkpt>
      <trkpt lat="46.82133" lon="6.37459">
        <ele>1066.4</ele>
        <time>2024-01-13T16:57:01Z</time>
      </trkpt>
      <trkpt lat="46.82117" lon="6.37471">
        <ele>1067.8</ele>
        <time>2024-01-13T16:57:10Z</time>
      </trkpt>
      <trkpt lat="46.82113" lon="6.37476">
        <ele>1068.2</ele>
        <time>2024-01-13T16:57:12Z</time>
      </trkpt>
      <trkpt lat="46.821" lon="6.37495">
        <ele>1069.5</ele>
        <time>2024-01-13T16:57:20Z</time>
      </trkpt>
      <trkpt lat="46.82091" lon="6.37517">
        <ele>1071</ele>
        <time>2024-01-13T16:57:31Z</time>
      </trkpt>
      <trkpt lat="46.8208" lon="6.37542">
        <ele>1072.2</ele>
        <time>2024-01-13T16:57:41Z</time>
      </trkpt>
      <trkpt lat="46.82067" lon="6.37563">
        <ele>1073.4</ele>
        <time>2024-01-13T16:57:50Z</time>
      </trkpt>
      <trkpt lat="46.82055" lon="6.37584">
        <ele>1075.1</ele>
        <time>2024-01-13T16:58:00Z</time>
      </trkpt>
      <trkpt lat="46.82042" lon="6.37603">
        <ele>1077.4</ele>
        <time>2024-01-13T16:58:09Z</time>
      </trkpt>
      <trkpt lat="46.82029" lon="6.37623">
        <ele>1078.5</ele>
        <time>2024-01-13T16:58:18Z</time>
      </trkpt>
      <trkpt lat="46.82018" lon="6.37645">
        <ele>1079.3</ele>
        <time>2024-01-13T16:58:27Z</time>
      </trkpt>
      <trkpt lat="46.82014" lon="6.37666">
        <ele>1080.1</ele>
        <time>2024-01-13T16:58:34Z</time>
      </trkpt>
      <trkpt lat="46.82013" lon="6.37685">
        <ele>1081</ele>
        <time>2024-01-13T16:58:41Z</time>
      </trkpt>
      <trkpt lat="46.81999" lon="6.37702">
        <ele>1082.6</ele>
        <time>2024-01-13T16:58:50Z</time>
      </trkpt>
      <trkpt lat="46.81986" lon="6.37722">
        <ele>1084.3</ele>
        <time>2024-01-13T16:59:00Z</time>
      </trkpt>
      <trkpt lat="46.81973" lon="6.37741">
        <ele>1085</ele>
        <time>2024-01-13T16:59:09Z</time>
      </trkpt>
      <trkpt lat="46.8197" lon="6.37767">
        <ele>1085.9</ele>
        <time>2024-01-13T16:59:21Z</time>
      </trkpt>
      <trkpt lat="46.81983" lon="6.37788">
        <ele>1087.1</ele>
        <time>2024-01-13T16:59:33Z</time>
      </trkpt>
      <trkpt lat="46.82001" lon="6.37791">
        <ele>1088.4</ele>
        <time>2024-01-13T16:59:42Z</time>
      </trkpt>
      <trkpt lat="46.82017" lon="6.37802">
        <ele>1089.8</ele>
        <time>2024-01-13T16:59:51Z</time>
      </trkpt>
      <trkpt lat="46.82024" lon="6.37827">
        <ele>1091.3</ele>
        <time>2024-01-13T17:00:00Z</time>
      </trkpt>
      <trkpt lat="46.82032" lon="6.37851">
        <ele>1093</ele>
        <time>2024-01-13T17:00:11Z</time>
      </trkpt>
      <trkpt lat="46.82044" lon="6.37872">
        <ele>1094.6</ele>
        <time>2024-01-13T17:00:20Z</time>
      </trkpt>
      <trkpt lat="46.82059" lon="6.37887">
        <ele>1095.9</ele>
        <time>2024-01-13T17:00:29Z</time>
      </trkpt>
      <trkpt lat="46.82078" lon="6.37896">
        <ele>1097</ele>
        <time>2024-01-13T17:00:38Z</time>
      </trkpt>
      <trkpt lat="46.82089" lon="6.37917">
        <ele>1098.2</ele>
        <time>2024-01-13T17:00:48Z</time>
      </trkpt>
      <trkpt lat="46.82094" lon="6.37944">
        <ele>1099.7</ele>
        <time>2024-01-13T17:01:00Z</time>
      </trkpt>
      <trkpt lat="46.82107" lon="6.37966">
        <ele>1101.3</ele>
        <time>2024-01-13T17:01:11Z</time>
      </trkpt>
      <trkpt lat="46.8212" lon="6.37986">
        <ele>1102.9</ele>
        <time>2024-01-13T17:01:20Z</time>
      </trkpt>
      <trkpt lat="46.82133" lon="6.38006">
        <ele>1104.5</ele>
        <time>2024-01-13T17:01:30Z</time>
      </trkpt>
      <trkpt lat="46.82141" lon="6.38031">
        <ele>1106</ele>
        <time>2024-01-13T17:01:40Z</time>
      </trkpt>
      <trkpt lat="46.82143" lon="6.38059">
        <ele>1107.5</ele>
        <time>2024-01-13T17:01:52Z</time>
      </trkpt>
      <trkpt lat="46.82146" lon="6.38087">
        <ele>1109.1</ele>
        <time>2024-01-13T17:02:03Z</time>
      </trkpt>
      <trkpt lat="46.82151" lon="6.38113">
        <ele>1110.7</ele>
        <time>2024-01-13T17:02:12Z</time>
      </trkpt>
      <trkpt lat="46.82154" lon="6.3814">
        <ele>1112.4</ele>
        <time>2024-01-13T17:02:23Z</time>
      </trkpt>
      <trkpt lat="46.82157" lon="6.38167">
        <ele>1114.1</ele>
        <time>2024-01-13T17:02:35Z</time>
      </trkpt>
      <trkpt lat="46.82163" lon="6.38194">
        <ele>1115.6</ele>
        <time>2024-01-13T17:02:46Z</time>
      </trkpt>
      <trkpt lat="46.82168" lon="6.38221">
        <ele>1116.3</ele>
        <time>2024-01-13T17:02:56Z</time>
      </trkpt>
      <trkpt lat="46.82186" lon="6.38229">
        <ele>1116.3</ele>
        <time>2024-01-13T17:03:05Z</time>
      </trkpt>
      <trkpt lat="46.82204" lon="6.38243">
        <ele>1116.1</ele>
        <time>2024-01-13T17:03:13Z</time>
      </trkpt>
      <trkpt lat="46.82219" lon="6.38261">
        <ele>1115.6</ele>
        <time>2024-01-13T17:03:20Z</time>
      </trkpt>
      <trkpt lat="46.82229" lon="6.38283">
        <ele>1115</ele>
        <time>2024-01-13T17:03:26Z</time>
      </trkpt>
      <trkpt lat="46.82238" lon="6.38308">
        <ele>1114.2</ele>
        <time>2024-01-13T17:03:32Z</time>
      </trkpt>
      <trkpt lat="46.82246" lon="6.38332">
        <ele>1113.4</ele>
        <time>2024-01-13T17:03:38Z</time>
      </trkpt>
      <trkpt lat="46.82257" lon="6.38357">
        <ele>1112.7</ele>
        <time>2024-01-13T17:03:44Z</time>
      </trkpt>
      <trkpt lat="46.82266" lon="6.38382">
        <ele>1112.2</ele>
        <time>2024-01-13T17:03:50Z</time>
      </trkpt>
      <trkpt lat="46.82273" lon="6.38408">
        <ele>1111.9</ele>
        <time>2024-01-13T17:03:56Z</time>
      </trkpt>
      <trkpt lat="46.82282" lon="6.38435">
        <ele>1112</ele>
        <time>2024-01-13T17:04:03Z</time>
      </trkpt>
      <trkpt lat="46.8229" lon="6.3846">
        <ele>1112.2</ele>
        <time>2024-01-13T17:04:10Z</time>
      </trkpt>
      <trkpt lat="46.82297" lon="6.38485">
        <ele>1112.7</ele>
        <time>2024-01-13T17:04:17Z</time>
      </trkpt>
      <trkpt lat="46.82304" lon="6.38512">
        <ele>1113.3</ele>
        <time>2024-01-13T17:04:25Z</time>
      </trkpt>
      <trkpt lat="46.82311" lon="6.38538">
        <ele>1114.1</ele>
        <time>2024-01-13T17:04:32Z</time>
      </trkpt>
      <trkpt lat="46.82318" lon="6.38566">
        <ele>1114.8</ele>
        <time>2024-01-13T17:04:40Z</time>
      </trkpt>
      <trkpt lat="46.82327" lon="6.3859">
        <ele>1115.3</ele>
        <time>2024-01-13T17:04:47Z</time>
      </trkpt>
      <trkpt lat="46.82336" lon="6.38616">
        <ele>1115.8</ele>
        <time>2024-01-13T17:04:54Z</time>
      </trkpt>
      <trkpt lat="46.82346" lon="6.38641">
        <ele>1116</ele>
        <time>2024-01-13T17:05:01Z</time>
      </trkpt>
      <trkpt lat="46.82359" lon="6.38662">
        <ele>1116.1</ele>
        <time>2024-01-13T17:05:07Z</time>
      </trkpt>
      <trkpt lat="46.82373" lon="6.38681">
        <ele>1115.9</ele>
        <time>2024-01-13T17:05:13Z</time>
      </trkpt>
      <trkpt lat="46.82387" lon="6.38703">
        <ele>1115.7</ele>
        <time>2024-01-13T17:05:20Z</time>
      </trkpt>
      <trkpt lat="46.824" lon="6.38722">
        <ele>1115.3</ele>
        <time>2024-01-13T17:05:26Z</time>
      </trkpt>
      <trkpt lat="46.82412" lon="6.38742">
        <ele>1114.8</ele>
        <time>2024-01-13T17:05:32Z</time>
      </trkpt>
      <trkpt lat="46.82425" lon="6.38762">
        <ele>1113.9</ele>
        <time>2024-01-13T17:05:38Z</time>
      </trkpt>
      <trkpt lat="46.82437" lon="6.38784">
        <ele>1112.7</ele>
        <time>2024-01-13T17:05:44Z</time>
      </trkpt>
      <trkpt lat="46.82451" lon="6.38807">
        <ele>1111.1</ele>
        <time>2024-01-13T17:05:50Z</time>
      </trkpt>
      <trkpt lat="46.82463" lon="6.38826">
        <ele>1109.8</ele>
        <time>2024-01-13T17:05:55Z</time>
      </trkpt>
      <trkpt lat="46.82479" lon="6.38849">
        <ele>1108.3</ele>
        <time>2024-01-13T17:06:01Z</time>
      </trkpt>
      <trkpt lat="46.82492" lon="6.38869">
        <ele>1107.3</ele>
        <time>2024-01-13T17:06:07Z</time>
      </trkpt>
      <trkpt lat="46.82504" lon="6.38889">
        <ele>1106.4</ele>
        <time>2024-01-13T17:06:13Z</time>
      </trkpt>
      <trkpt lat="46.82501" lon="6.38891">
        <ele>1106.3</ele>
        <time>2024-01-13T17:08:10Z</time>
      </trkpt>
      <trkpt lat="46.82515" lon="6.38909">
        <ele>1105.6</ele>
        <time>2024-01-13T17:08:16Z</time>
      </trkpt>
      <trkpt lat="46.82529" lon="6.38925">
        <ele>1105</ele>
        <time>2024-01-13T17:08:21Z</time>
      </trkpt>
      <trkpt lat="46.82543" lon="6.38943">
        <ele>1104.6</ele>
        <time>2024-01-13T17:08:26Z</time>
      </trkpt>
      <trkpt lat="46.82559" lon="6.38962">
        <ele>1104.5</ele>
        <time>2024-01-13T17:08:32Z</time>
      </trkpt>
      <trkpt lat="46.82574" lon="6.38981">
        <ele>1104.6</ele>
        <time>2024-01-13T17:08:38Z</time>
      </trkpt>
      <trkpt lat="46.8259" lon="6.39">
        <ele>1104.6</ele>
        <time>2024-01-13T17:08:44Z</time>
      </trkpt>
      <trkpt lat="46.82605" lon="6.39016">
        <ele>1104.7</ele>
        <time>2024-01-13T17:08:49Z</time>
      </trkpt>
      <trkpt lat="46.82621" lon="6.39037">
        <ele>1104.8</ele>
        <time>2024-01-13T17:08:55Z</time>
      </trkpt>
      <trkpt lat="46.82635" lon="6.39057">
        <ele>1105</ele>
        <time>2024-01-13T17:09:01Z</time>
      </trkpt>
      <trkpt lat="46.82647" lon="6.39079">
        <ele>1104.9</ele>
        <time>2024-01-13T17:09:07Z</time>
      </trkpt>
      <trkpt lat="46.82653" lon="6.39107">
        <ele>1104.5</ele>
        <time>2024-01-13T17:09:13Z</time>
      </trkpt>
      <trkpt lat="46.82657" lon="6.39134">
        <ele>1103.8</ele>
        <time>2024-01-13T17:09:19Z</time>
      </trkpt>
      <trkpt lat="46.82662" lon="6.39162">
        <ele>1102.9</ele>
        <time>2024-01-13T17:09:25Z</time>
      </trkpt>
      <trkpt lat="46.82667" lon="6.39191">
        <ele>1102.1</ele>
        <time>2024-01-13T17:09:31Z</time>
      </trkpt>
      <trkpt lat="46.82673" lon="6.3922">
        <ele>1101.2</ele>
        <time>2024-01-13T17:09:37Z</time>
      </trkpt>
      <trkpt lat="46.82677" lon="6.39247">
        <ele>1100.3</ele>
        <time>2024-01-13T17:09:43Z</time>
      </trkpt>
      <trkpt lat="46.82682" lon="6.39277">
        <ele>1099.5</ele>
        <time>2024-01-13T17:09:49Z</time>
      </trkpt>
      <trkpt lat="46.82686" lon="6.39308">
        <ele>1098.8</ele>
        <time>2024-01-13T17:09:55Z</time>
      </trkpt>
      <trkpt lat="46.82692" lon="6.39333">
        <ele>1098.2</ele>
        <time>2024-01-13T17:10:00Z</time>
      </trkpt>
      <trkpt lat="46.82699" lon="6.39358">
        <ele>1097.6</ele>
        <time>2024-01-13T17:10:05Z</time>
      </trkpt>
      <trkpt lat="46.82709" lon="6.39386">
        <ele>1096.8</ele>
        <time>2024-01-13T17:10:11Z</time>
      </trkpt>
      <trkpt lat="46.8272" lon="6.39408">
        <ele>1096.2</ele>
        <time>2024-01-13T17:10:16Z</time>
      </trkpt>
      <trkpt lat="46.8273" lon="6.39432">
        <ele>1095.8</ele>
        <time>2024-01-13T17:10:21Z</time>
      </trkpt>
      <trkpt lat="46.8274" lon="6.39457">
        <ele>1095.3</ele>
        <time>2024-01-13T17:10:27Z</time>
      </trkpt>
      <trkpt lat="46.82751" lon="6.39479">
        <ele>1094.9</ele>
        <time>2024-01-13T17:10:32Z</time>
      </trkpt>
      <trkpt lat="46.82762" lon="6.395">
        <ele>1094.5</ele>
        <time>2024-01-13T17:10:37Z</time>
      </trkpt>
      <trkpt lat="46.82773" lon="6.39527">
        <ele>1094</ele>
        <time>2024-01-13T17:10:43Z</time>
      </trkpt>
      <trkpt lat="46.82784" lon="6.39549">
        <ele>1093.8</ele>
        <time>2024-01-13T17:10:48Z</time>
      </trkpt>
      <trkpt lat="46.82794" lon="6.39572">
        <ele>1093.8</ele>
        <time>2024-01-13T17:10:53Z</time>
      </trkpt>
      <trkpt lat="46.82805" lon="6.39599">
        <ele>1093.9</ele>
        <time>2024-01-13T17:10:59Z</time>
      </trkpt>
      <trkpt lat="46.82818" lon="6.39622">
        <ele>1093.9</ele>
        <time>2024-01-13T17:11:05Z</time>
      </trkpt>
      <trkpt lat="46.82833" lon="6.39643">
        <ele>1093.9</ele>
        <time>2024-01-13T17:11:11Z</time>
      </trkpt>
      <trkpt lat="46.82849" lon="6.39663">
        <ele>1093.7</ele>
        <time>2024-01-13T17:11:17Z</time>
      </trkpt>
      <trkpt lat="46.82863" lon="6.3968">
        <ele>1093.5</ele>
        <time>2024-01-13T17:11:22Z</time>
      </trkpt>
      <trkpt lat="46.82878" lon="6.397">
        <ele>1093.4</ele>
        <time>2024-01-13T17:11:28Z</time>
      </trkpt>
      <trkpt lat="46.82892" lon="6.39717">
        <ele>1093.3</ele>
        <time>2024-01-13T17:11:33Z</time>
      </trkpt>
      <trkpt lat="46.82909" lon="6.39735">
        <ele>1093.2</ele>
        <time>2024-01-13T17:11:39Z</time>
      </trkpt>
      <trkpt lat="46.82923" lon="6.39754">
        <ele>1092.9</ele>
        <time>2024-01-13T17:11:45Z</time>
      </trkpt>
      <trkpt lat="46.82938" lon="6.39773">
        <ele>1092.5</ele>
        <time>2024-01-13T17:11:51Z</time>
      </trkpt>
      <trkpt lat="46.82953" lon="6.3979">
        <ele>1092</ele>
        <time>2024-01-13T17:11:56Z</time>
      </trkpt>
      <trkpt lat="46.82968" lon="6.39808">
        <ele>1091.5</ele>
        <time>2024-01-13T17:12:01Z</time>
      </trkpt>
      <trkpt lat="46.82984" lon="6.39825">
        <ele>1091.1</ele>
        <time>2024-01-13T17:12:06Z</time>
      </trkpt>
      <trkpt lat="46.82999" lon="6.39842">
        <ele>1091</ele>
        <time>2024-01-13T17:12:11Z</time>
      </trkpt>
      <trkpt lat="46.83016" lon="6.39862">
        <ele>1091.1</ele>
        <time>2024-01-13T17:12:17Z</time>
      </trkpt>
      <trkpt lat="46.83031" lon="6.3988">
        <ele>1091.2</ele>
        <time>2024-01-13T17:12:23Z</time>
      </trkpt>
      <trkpt lat="46.83041" lon="6.39905">
        <ele>1091.4</ele>
        <time>2024-01-13T17:12:29Z</time>
      </trkpt>
      <trkpt lat="46.83047" lon="6.39935">
        <ele>1091.6</ele>
        <time>2024-01-13T17:12:35Z</time>
      </trkpt>
      <trkpt lat="46.83052" lon="6.3996">
        <ele>1091.8</ele>
        <time>2024-01-13T17:12:40Z</time>
      </trkpt>
      <trkpt lat="46.83057" lon="6.39987">
        <ele>1092</ele>
        <time>2024-01-13T17:12:45Z</time>
      </trkpt>
      <trkpt lat="46.8306" lon="6.40017">
        <ele>1092.3</ele>
        <time>2024-01-13T17:12:51Z</time>
      </trkpt>
      <trkpt lat="46.83065" lon="6.40045">
        <ele>1092.8</ele>
        <time>2024-01-13T17:12:57Z</time>
      </trkpt>
      <trkpt lat="46.83073" lon="6.4007">
        <ele>1093.6</ele>
        <time>2024-01-13T17:13:03Z</time>
      </trkpt>
      <trkpt lat="46.83082" lon="6.40096">
        <ele>1094.6</ele>
        <time>2024-01-13T17:13:09Z</time>
      </trkpt>
      <trkpt lat="46.8309" lon="6.40122">
        <ele>1095.7</ele>
        <time>2024-01-13T17:13:15Z</time>
      </trkpt>
      <trkpt lat="46.83095" lon="6.40147">
        <ele>1096.6</ele>
        <time>2024-01-13T17:13:20Z</time>
      </trkpt>
      <trkpt lat="46.83096" lon="6.40177">
        <ele>1097.4</ele>
        <time>2024-01-13T17:13:26Z</time>
      </trkpt>
      <trkpt lat="46.83097" lon="6.40207">
        <ele>1097.9</ele>
        <time>2024-01-13T17:13:32Z</time>
      </trkpt>
      <trkpt lat="46.831" lon="6.40234">
        <ele>1098.1</ele>
        <time>2024-01-13T17:13:38Z</time>
      </trkpt>
      <trkpt lat="46.83109" lon="6.40259">
        <ele>1098.1</ele>
        <time>2024-01-13T17:13:44Z</time>
      </trkpt>
      <trkpt lat="46.8312" lon="6.40282">
        <ele>1097.9</ele>
        <time>2024-01-13T17:13:50Z</time>
      </trkpt>
      <trkpt lat="46.83132" lon="6.40304">
        <ele>1097.7</ele>
        <time>2024-01-13T17:13:56Z</time>
      </trkpt>
      <trkpt lat="46.83144" lon="6.40326">
        <ele>1097.2</ele>
        <time>2024-01-13T17:14:02Z</time>
      </trkpt>
      <trkpt lat="46.83159" lon="6.4035">
        <ele>1096.8</ele>
        <time>2024-01-13T17:14:08Z</time>
      </trkpt>
      <trkpt lat="46.83171" lon="6.40372">
        <ele>1096.4</ele>
        <time>2024-01-13T17:14:14Z</time>
      </trkpt>
      <trkpt lat="46.83183" lon="6.40393">
        <ele>1096</ele>
        <time>2024-01-13T17:14:20Z</time>
      </trkpt>
      <trkpt lat="46.83197" lon="6.40416">
        <ele>1095.6</ele>
        <time>2024-01-13T17:14:27Z</time>
      </trkpt>
      <trkpt lat="46.83208" lon="6.40437">
        <ele>1095.2</ele>
        <time>2024-01-13T17:14:33Z</time>
      </trkpt>
      <trkpt lat="46.83219" lon="6.4046">
        <ele>1094.7</ele>
        <time>2024-01-13T17:14:39Z</time>
      </trkpt>
      <trkpt lat="46.83228" lon="6.40484">
        <ele>1094.3</ele>
        <time>2024-01-13T17:14:45Z</time>
      </trkpt>
      <trkpt lat="46.8324" lon="6.40504">
        <ele>1093.9</ele>
        <time>2024-01-13T17:14:51Z</time>
      </trkpt>
      <trkpt lat="46.83257" lon="6.40516">
        <ele>1093.1</ele>
        <time>2024-01-13T17:14:57Z</time>
      </trkpt>
      <trkpt lat="46.83275" lon="6.40524">
        <ele>1092.5</ele>
        <time>2024-01-13T17:15:03Z</time>
      </trkpt>
      <trkpt lat="46.83294" lon="6.40535">
        <ele>1092</ele>
        <time>2024-01-13T17:15:10Z</time>
      </trkpt>
      <trkpt lat="46.83315" lon="6.40545">
        <ele>1091.5</ele>
        <time>2024-01-13T17:15:17Z</time>
      </trkpt>
      <trkpt lat="46.83333" lon="6.40555">
        <ele>1091.1</ele>
        <time>2024-01-13T17:15:23Z</time>
      </trkpt>
      <trkpt lat="46.83351" lon="6.40567">
        <ele>1090.9</ele>
        <time>2024-01-13T17:15:29Z</time>
      </trkpt>
      <trkpt lat="46.83369" lon="6.40577">
        <ele>1090.8</ele>
        <time>2024-01-13T17:15:36Z</time>
      </trkpt>
      <trkpt lat="46.83372" lon="6.40574">
        <ele>1090.8</ele>
        <time>2024-01-13T17:15:38Z</time>
      </trkpt>
      <trkpt lat="46.83371" lon="6.4057">
        <ele>1090.7</ele>
        <time>2024-01-13T17:15:40Z</time>
      </trkpt>
      <trkpt lat="46.8337" lon="6.40543">
        <ele>1090.6</ele>
        <time>2024-01-13T17:15:48Z</time>
      </trkpt>
      <trkpt lat="46.83377" lon="6.40514">
        <ele>1090.4</ele>
        <time>2024-01-13T17:15:55Z</time>
      </trkpt>
      <trkpt lat="46.83382" lon="6.40491">
        <ele>1090.4</ele>
        <time>2024-01-13T17:16:01Z</time>
      </trkpt>
      <trkpt lat="46.83394" lon="6.40473">
        <ele>1090.3</ele>
        <time>2024-01-13T17:16:08Z</time>
      </trkpt>
      <trkpt lat="46.83402" lon="6.40447">
        <ele>1090.2</ele>
        <time>2024-01-13T17:16:15Z</time>
      </trkpt>
      <trkpt lat="46.83411" lon="6.40419">
        <ele>1090</ele>
        <time>2024-01-13T17:16:22Z</time>
      </trkpt>
      <trkpt lat="46.83419" lon="6.40394">
        <ele>1089.5</ele>
        <time>2024-01-13T17:16:28Z</time>
      </trkpt>
      <trkpt lat="46.83429" lon="6.40369">
        <ele>1088.9</ele>
        <time>2024-01-13T17:16:35Z</time>
      </trkpt>
      <trkpt lat="46.83431" lon="6.40362">
        <ele>1088.9</ele>
        <time>2024-01-13T17:16:37Z</time>
      </trkpt>
      <trkpt lat="46.83437" lon="6.40334">
        <ele>1088.6</ele>
        <time>2024-01-13T17:16:44Z</time>
      </trkpt>
      <trkpt lat="46.83445" lon="6.40309">
        <ele>1088</ele>
        <time>2024-01-13T17:16:51Z</time>
      </trkpt>
      <trkpt lat="46.83453" lon="6.40285">
        <ele>1087.5</ele>
        <time>2024-01-13T17:16:57Z</time>
      </trkpt>
      <trkpt lat="46.83463" lon="6.40258">
        <ele>1086.9</ele>
        <time>2024-01-13T17:17:04Z</time>
      </trkpt>
      <trkpt lat="46.83469" lon="6.40231">
        <ele>1086.4</ele>
        <time>2024-01-13T17:17:11Z</time>
      </trkpt>
      <trkpt lat="46.83476" lon="6.40205">
        <ele>1085.8</ele>
        <time>2024-01-13T17:17:18Z</time>
      </trkpt>
      <trkpt lat="46.83484" lon="6.40179">
        <ele>1085.3</ele>
        <time>2024-01-13T17:17:25Z</time>
      </trkpt>
      <trkpt lat="46.83488" lon="6.40153">
        <ele>1084.8</ele>
        <time>2024-01-13T17:17:32Z</time>
      </trkpt>
      <trkpt lat="46.8349" lon="6.40126">
        <ele>1084.7</ele>
        <time>2024-01-13T17:17:40Z</time>
      </trkpt>
      <trkpt lat="46.8349" lon="6.40119">
        <ele>1084.8</ele>
        <time>2024-01-13T17:17:42Z</time>
      </trkpt>
      <trkpt lat="46.83474" lon="6.40106">
        <ele>1084.8</ele>
        <time>2024-01-13T17:17:49Z</time>
      </trkpt>
      <trkpt lat="46.83457" lon="6.40092">
        <ele>1085.1</ele>
        <time>2024-01-13T17:17:55Z</time>
      </trkpt>
      <trkpt lat="46.83444" lon="6.40081">
        <ele>1085.5</ele>
        <time>2024-01-13T17:18:00Z</time>
      </trkpt>
      <trkpt lat="46.83448" lon="6.40065">
        <ele>1086</ele>
        <time>2024-01-13T17:18:05Z</time>
      </trkpt>
    </trkseg>
  </trk>
</gpx>